sensor_id;sensor_type;location;lat;lon;timestamp;temperature;humidity
67379;DHT22;54262;44.642;-0.974;2023-10-09T00:00:16;19.60;93.90
67379;DHT22;54262;44.642;-0.974;2023-10-09T00:03:01;19.50;93.90
67379;DHT22;54262;44.642;-0.974;2023-10-09T00:05:27;19.50;94.00
67379;DHT22;54262;44.642;-0.974;2023-10-09T00:08:15;19.50;94.00
67379;DHT22;54262;44.642;-0.974;2023-10-09T00:11:10;19.40;94.10
67379;DHT22;54262;44.642;-0.974;2023-10-09T00:13:41;19.40;94.20
67379;DHT22;54262;44.642;-0.974;2023-10-09T00:16:21;19.40;94.30
67379;DHT22;54262;44.642;-0.974;2023-10-09T00:19:06;19.30;94.40
67379;DHT22;54262;44.642;-0.974;2023-10-09T00:21:55;19.30;94.50
67379;DHT22;54262;44.642;-0.974;2023-10-09T00:24:21;19.30;94.60
67379;DHT22;54262;44.642;-0.974;2023-10-09T00:26:51;19.20;94.70
67379;DHT22;54262;44.642;-0.974;2023-10-09T00:29:35;19.20;94.80
67379;DHT22;54262;44.642;-0.974;2023-10-09T00:32:07;19.20;94.90
67379;DHT22;54262;44.642;-0.974;2023-10-09T00:34:48;19.10;94.90
67379;DHT22;54262;44.642;-0.974;2023-10-09T00:37:18;19.10;95.10
67379;DHT22;54262;44.642;-0.974;2023-10-09T00:39:49;19.10;95.10
67379;DHT22;54262;44.642;-0.974;2023-10-09T00:42:21;19.10;95.20
67379;DHT22;54262;44.642;-0.974;2023-10-09T00:45:00;19.00;95.30
67379;DHT22;54262;44.642;-0.974;2023-10-09T00:47:29;19.00;95.30
67379;DHT22;54262;44.642;-0.974;2023-10-09T00:50:09;19.00;95.50
67379;DHT22;54262;44.642;-0.974;2023-10-09T00:52:45;18.90;95.50
67379;DHT22;54262;44.642;-0.974;2023-10-09T00:55:32;18.90;95.60
67379;DHT22;54262;44.642;-0.974;2023-10-09T00:58:21;18.90;95.80
67379;DHT22;54262;44.642;-0.974;2023-10-09T01:00:52;18.80;95.90
67379;DHT22;54262;44.642;-0.974;2023-10-09T01:03:19;18.80;96.00
67379;DHT22;54262;44.642;-0.974;2023-10-09T01:05:50;18.80;96.00
67379;DHT22;54262;44.642;-0.974;2023-10-09T01:08:29;18.80;96.10
67379;DHT22;54262;44.642;-0.974;2023-10-09T01:11:16;18.70;96.20
67379;DHT22;54262;44.642;-0.974;2023-10-09T01:13:48;18.70;96.30
67379;DHT22;54262;44.642;-0.974;2023-10-09T01:16:15;18.70;96.40
67379;DHT22;54262;44.642;-0.974;2023-10-09T01:18:45;18.70;96.50
67379;DHT22;54262;44.642;-0.974;2023-10-09T01:21:14;18.60;96.50
67379;DHT22;54262;44.642;-0.974;2023-10-09T01:23:46;18.60;96.60
67379;DHT22;54262;44.642;-0.974;2023-10-09T01:26:28;18.60;96.70
67379;DHT22;54262;44.642;-0.974;2023-10-09T01:28:58;18.60;96.80
67379;DHT22;54262;44.642;-0.974;2023-10-09T01:31:25;18.60;96.80
67379;DHT22;54262;44.642;-0.974;2023-10-09T01:33:52;18.50;96.90
67379;DHT22;54262;44.642;-0.974;2023-10-09T01:36:25;18.50;97.00
67379;DHT22;54262;44.642;-0.974;2023-10-09T01:39:02;18.50;97.10
67379;DHT22;54262;44.642;-0.974;2023-10-09T01:41:55;18.50;97.10
67379;DHT22;54262;44.642;-0.974;2023-10-09T01:44:28;18.40;97.20
67379;DHT22;54262;44.642;-0.974;2023-10-09T01:47:09;18.40;97.30
67379;DHT22;54262;44.642;-0.974;2023-10-09T01:49:42;18.40;97.40
67379;DHT22;54262;44.642;-0.974;2023-10-09T01:52:09;18.40;97.50
67379;DHT22;54262;44.642;-0.974;2023-10-09T01:54:39;18.30;97.50
67379;DHT22;54262;44.642;-0.974;2023-10-09T01:57:11;18.30;97.60
67379;DHT22;54262;44.642;-0.974;2023-10-09T01:59:44;18.30;97.70
67379;DHT22;54262;44.642;-0.974;2023-10-09T02:02:12;18.30;97.70
67379;DHT22;54262;44.642;-0.974;2023-10-09T02:05:00;18.30;97.80
67379;DHT22;54262;44.642;-0.974;2023-10-09T02:07:38;18.20;97.80
67379;DHT22;54262;44.642;-0.974;2023-10-09T02:10:14;18.20;97.90
67379;DHT22;54262;44.642;-0.974;2023-10-09T02:13:04;18.20;98.00
67379;DHT22;54262;44.642;-0.974;2023-10-09T02:15:39;18.10;98.20
67379;DHT22;54262;44.642;-0.974;2023-10-09T02:18:15;18.10;98.20
67379;DHT22;54262;44.642;-0.974;2023-10-09T02:20:51;18.10;98.30
67379;DHT22;54262;44.642;-0.974;2023-10-09T02:23:38;18.10;98.50
67379;DHT22;54262;44.642;-0.974;2023-10-09T02:26:11;18.00;98.50
67379;DHT22;54262;44.642;-0.974;2023-10-09T02:28:51;18.00;98.60
67379;DHT22;54262;44.642;-0.974;2023-10-09T02:31:30;18.00;98.70
67379;DHT22;54262;44.642;-0.974;2023-10-09T02:34:06;18.00;98.70
67379;DHT22;54262;44.642;-0.974;2023-10-09T02:36:34;17.90;98.80
67379;DHT22;54262;44.642;-0.974;2023-10-09T02:39:06;17.90;98.90
67379;DHT22;54262;44.642;-0.974;2023-10-09T02:41:32;17.90;99.00
67379;DHT22;54262;44.642;-0.974;2023-10-09T02:44:00;17.90;99.00
67379;DHT22;54262;44.642;-0.974;2023-10-09T02:46:35;17.90;99.10
67379;DHT22;54262;44.642;-0.974;2023-10-09T02:49:02;17.80;99.10
67379;DHT22;54262;44.642;-0.974;2023-10-09T02:51:35;17.80;99.20
67379;DHT22;54262;44.642;-0.974;2023-10-09T02:54:07;17.80;99.30
67379;DHT22;54262;44.642;-0.974;2023-10-09T02:56:44;17.80;99.40
67379;DHT22;54262;44.642;-0.974;2023-10-09T02:59:13;17.70;99.40
67379;DHT22;54262;44.642;-0.974;2023-10-09T03:01:40;17.70;99.50
67379;DHT22;54262;44.642;-0.974;2023-10-09T03:04:09;17.70;99.50
67379;DHT22;54262;44.642;-0.974;2023-10-09T03:06:38;17.70;99.90
67379;DHT22;54262;44.642;-0.974;2023-10-09T03:09:09;17.70;99.70
67379;DHT22;54262;44.642;-0.974;2023-10-09T03:11:49;17.60;99.70
67379;DHT22;54262;44.642;-0.974;2023-10-09T03:14:22;17.60;99.80
67379;DHT22;54262;44.642;-0.974;2023-10-09T03:16:52;17.60;99.80
67379;DHT22;54262;44.642;-0.974;2023-10-09T03:19:18;17.50;99.80
67379;DHT22;54262;44.642;-0.974;2023-10-09T03:21:43;17.50;99.90
67379;DHT22;54262;44.642;-0.974;2023-10-09T03:24:12;17.50;99.90
67379;DHT22;54262;44.642;-0.974;2023-10-09T03:26:37;17.50;99.90
67379;DHT22;54262;44.642;-0.974;2023-10-09T03:29:03;17.40;99.90
67379;DHT22;54262;44.642;-0.974;2023-10-09T03:31:38;17.40;99.90
67379;DHT22;54262;44.642;-0.974;2023-10-09T03:34:05;17.40;99.90
67379;DHT22;54262;44.642;-0.974;2023-10-09T03:36:31;17.40;99.90
67379;DHT22;54262;44.642;-0.974;2023-10-09T03:39:05;17.40;99.90
67379;DHT22;54262;44.642;-0.974;2023-10-09T03:41:44;17.30;99.90
67379;DHT22;54262;44.642;-0.974;2023-10-09T03:44:14;17.30;99.90
67379;DHT22;54262;44.642;-0.974;2023-10-09T03:46:39;17.30;99.90
67379;DHT22;54262;44.642;-0.974;2023-10-09T03:49:10;17.30;99.90
67379;DHT22;54262;44.642;-0.974;2023-10-09T03:51:37;17.30;99.90
67379;DHT22;54262;44.642;-0.974;2023-10-09T03:54:05;17.30;99.90
67379;DHT22;54262;44.642;-0.974;2023-10-09T03:56:34;17.20;99.90
67379;DHT22;54262;44.642;-0.974;2023-10-09T03:59:00;17.20;99.90
67379;DHT22;54262;44.642;-0.974;2023-10-09T04:01:27;17.20;99.90
67379;DHT22;54262;44.642;-0.974;2023-10-09T04:03:54;17.20;99.90
67379;DHT22;54262;44.642;-0.974;2023-10-09T04:06:34;17.10;99.90
67379;DHT22;54262;44.642;-0.974;2023-10-09T04:09:07;17.10;99.90
67379;DHT22;54262;44.642;-0.974;2023-10-09T04:11:54;17.10;99.90
67379;DHT22;54262;44.642;-0.974;2023-10-09T04:14:38;17.10;99.90
67379;DHT22;54262;44.642;-0.974;2023-10-09T04:17:34;17.00;99.90
67379;DHT22;54262;44.642;-0.974;2023-10-09T04:20:01;17.00;99.90
67379;DHT22;54262;44.642;-0.974;2023-10-09T04:22:45;17.00;99.90
67379;DHT22;54262;44.642;-0.974;2023-10-09T04:25:25;17.00;99.90
67379;DHT22;54262;44.642;-0.974;2023-10-09T04:27:59;17.00;99.90
67379;DHT22;54262;44.642;-0.974;2023-10-09T04:30:40;17.00;99.90
67379;DHT22;54262;44.642;-0.974;2023-10-09T04:33:08;16.90;99.90
67379;DHT22;54262;44.642;-0.974;2023-10-09T04:36:07;16.90;99.90
67379;DHT22;54262;44.642;-0.974;2023-10-09T04:38:44;16.90;99.90
67379;DHT22;54262;44.642;-0.974;2023-10-09T04:41:33;16.90;99.90
67379;DHT22;54262;44.642;-0.974;2023-10-09T04:44:17;16.90;99.90
67379;DHT22;54262;44.642;-0.974;2023-10-09T04:46:51;16.90;99.90
67379;DHT22;54262;44.642;-0.974;2023-10-09T04:49:36;16.90;99.90
67379;DHT22;54262;44.642;-0.974;2023-10-09T04:52:32;16.90;99.90
67379;DHT22;54262;44.642;-0.974;2023-10-09T04:54:58;16.90;99.90
67379;DHT22;54262;44.642;-0.974;2023-10-09T04:57:40;16.90;99.90
67379;DHT22;54262;44.642;-0.974;2023-10-09T05:00:12;16.90;99.90
67379;DHT22;54262;44.642;-0.974;2023-10-09T05:02:54;16.80;99.90
67379;DHT22;54262;44.642;-0.974;2023-10-09T05:05:24;16.80;99.90
67379;DHT22;54262;44.642;-0.974;2023-10-09T05:08:16;16.80;99.90
67379;DHT22;54262;44.642;-0.974;2023-10-09T05:10:45;16.80;99.90
67379;DHT22;54262;44.642;-0.974;2023-10-09T05:13:26;16.80;99.90
67379;DHT22;54262;44.642;-0.974;2023-10-09T05:18:55;16.80;99.90
67379;DHT22;54262;44.642;-0.974;2023-10-09T05:21:53;16.80;99.90
67379;DHT22;54262;44.642;-0.974;2023-10-09T05:24:18;16.80;99.90
67379;DHT22;54262;44.642;-0.974;2023-10-09T05:26:49;16.80;99.90
67379;DHT22;54262;44.642;-0.974;2023-10-09T05:29:27;16.80;99.90
67379;DHT22;54262;44.642;-0.974;2023-10-09T05:32:03;16.80;99.90
67379;DHT22;54262;44.642;-0.974;2023-10-09T05:34:39;16.80;99.90
67379;DHT22;54262;44.642;-0.974;2023-10-09T05:37:23;16.80;99.90
67379;DHT22;54262;44.642;-0.974;2023-10-09T05:39:55;16.80;99.90
67379;DHT22;54262;44.642;-0.974;2023-10-09T05:42:46;16.80;99.90
67379;DHT22;54262;44.642;-0.974;2023-10-09T05:45:23;16.80;99.90
67379;DHT22;54262;44.642;-0.974;2023-10-09T05:48:07;16.80;99.90
67379;DHT22;54262;44.642;-0.974;2023-10-09T05:50:52;16.80;99.90
67379;DHT22;54262;44.642;-0.974;2023-10-09T05:53:38;16.80;99.90
67379;DHT22;54262;44.642;-0.974;2023-10-09T05:56:10;16.70;99.90
67379;DHT22;54262;44.642;-0.974;2023-10-09T05:58:54;16.70;99.90
67379;DHT22;54262;44.642;-0.974;2023-10-09T06:01:38;16.80;99.90
67379;DHT22;54262;44.642;-0.974;2023-10-09T06:04:17;16.70;99.90
67379;DHT22;54262;44.642;-0.974;2023-10-09T06:06:45;16.70;99.90
67379;DHT22;54262;44.642;-0.974;2023-10-09T06:09:14;16.70;99.90
67379;DHT22;54262;44.642;-0.974;2023-10-09T06:11:45;16.80;99.90
67379;DHT22;54262;44.642;-0.974;2023-10-09T06:14:37;14.90;99.90
67379;DHT22;54262;44.642;-0.974;2023-10-09T06:17:02;13.90;99.90
67379;DHT22;54262;44.642;-0.974;2023-10-09T06:19:48;13.50;99.90
67379;DHT22;54262;44.642;-0.974;2023-10-09T06:22:14;13.40;99.90
67379;DHT22;54262;44.642;-0.974;2023-10-09T06:24:59;13.50;99.90
67379;DHT22;54262;44.642;-0.974;2023-10-09T06:27:34;13.40;99.90
67379;DHT22;54262;44.642;-0.974;2023-10-09T06:30:00;13.30;99.90
67379;DHT22;54262;44.642;-0.974;2023-10-09T06:32:41;13.30;99.90
67379;DHT22;54262;44.642;-0.974;2023-10-09T06:35:25;13.30;99.90
67379;DHT22;54262;44.642;-0.974;2023-10-09T06:38:00;13.30;99.90
67379;DHT22;54262;44.642;-0.974;2023-10-09T06:40:35;13.30;99.90
67379;DHT22;54262;44.642;-0.974;2023-10-09T06:43:23;13.30;99.90
67379;DHT22;54262;44.642;-0.974;2023-10-09T06:45:53;13.40;99.90
67379;DHT22;54262;44.642;-0.974;2023-10-09T06:48:37;13.60;99.90
67379;DHT22;54262;44.642;-0.974;2023-10-09T06:51:08;14.30;99.90
67379;DHT22;54262;44.642;-0.974;2023-10-09T06:53:55;14.50;99.90
67379;DHT22;54262;44.642;-0.974;2023-10-09T06:56:25;14.60;99.90
67379;DHT22;54262;44.642;-0.974;2023-10-09T06:59:11;14.80;99.90
67379;DHT22;54262;44.642;-0.974;2023-10-09T07:01:48;14.60;99.90
67379;DHT22;54262;44.642;-0.974;2023-10-09T07:04:36;14.60;99.90
67379;DHT22;54262;44.642;-0.974;2023-10-09T07:07:02;14.90;99.90
67379;DHT22;54262;44.642;-0.974;2023-10-09T07:09:33;14.90;99.90
67379;DHT22;54262;44.642;-0.974;2023-10-09T07:12:11;14.90;99.90
67379;DHT22;54262;44.642;-0.974;2023-10-09T07:14:46;15.00;99.90
67379;DHT22;54262;44.642;-0.974;2023-10-09T07:17:12;15.10;99.90
67379;DHT22;54262;44.642;-0.974;2023-10-09T07:19:48;15.40;99.90
67379;DHT22;54262;44.642;-0.974;2023-10-09T07:22:14;16.50;99.90
67379;DHT22;54262;44.642;-0.974;2023-10-09T07:24:50;17.30;99.90
67379;DHT22;54262;44.642;-0.974;2023-10-09T07:27:40;17.90;99.90
67379;DHT22;54262;44.642;-0.974;2023-10-09T07:30:13;18.60;99.90
67379;DHT22;54262;44.642;-0.974;2023-10-09T07:32:58;19.00;99.90
67379;DHT22;54262;44.642;-0.974;2023-10-09T07:35:46;19.40;99.90
67379;DHT22;54262;44.642;-0.974;2023-10-09T07:38:23;19.70;99.90
67379;DHT22;54262;44.642;-0.974;2023-10-09T07:40:54;20.00;99.90
67379;DHT22;54262;44.642;-0.974;2023-10-09T07:43:32;20.30;99.90
67379;DHT22;54262;44.642;-0.974;2023-10-09T07:46:14;20.50;99.90
67379;DHT22;54262;44.642;-0.974;2023-10-09T07:49:00;20.80;99.90
67379;DHT22;54262;44.642;-0.974;2023-10-09T07:51:41;21.10;99.90
67379;DHT22;54262;44.642;-0.974;2023-10-09T07:54:12;21.30;99.90
67379;DHT22;54262;44.642;-0.974;2023-10-09T07:56:42;21.50;99.90
67379;DHT22;54262;44.642;-0.974;2023-10-09T07:59:09;21.60;99.90
67379;DHT22;54262;44.642;-0.974;2023-10-09T08:01:40;21.70;99.90
67379;DHT22;54262;44.642;-0.974;2023-10-09T08:04:26;21.90;99.90
67379;DHT22;54262;44.642;-0.974;2023-10-09T08:07:11;22.10;99.90
67379;DHT22;54262;44.642;-0.974;2023-10-09T08:09:54;22.30;99.90
67379;DHT22;54262;44.642;-0.974;2023-10-09T08:12:39;22.50;99.90
67379;DHT22;54262;44.642;-0.974;2023-10-09T08:15:24;22.70;99.90
67379;DHT22;54262;44.642;-0.974;2023-10-09T08:18:00;22.90;99.90
67379;DHT22;54262;44.642;-0.974;2023-10-09T08:20:30;23.10;99.90
67379;DHT22;54262;44.642;-0.974;2023-10-09T08:23:16;23.30;99.90
67379;DHT22;54262;44.642;-0.974;2023-10-09T08:26:04;23.50;99.90
67379;DHT22;54262;44.642;-0.974;2023-10-09T08:28:43;23.70;99.90
67379;DHT22;54262;44.642;-0.974;2023-10-09T08:31:12;23.80;99.90
67379;DHT22;54262;44.642;-0.974;2023-10-09T08:34:13;23.90;99.60
67379;DHT22;54262;44.642;-0.974;2023-10-09T08:36:50;24.10;99.60
67379;DHT22;54262;44.642;-0.974;2023-10-09T08:39:21;24.20;99.30
67379;DHT22;54262;44.642;-0.974;2023-10-09T08:41:58;24.30;98.80
67379;DHT22;54262;44.642;-0.974;2023-10-09T08:44:26;24.40;99.20
67379;DHT22;54262;44.642;-0.974;2023-10-09T08:46:57;24.20;98.90
67379;DHT22;54262;44.642;-0.974;2023-10-09T08:49:25;24.00;99.20
67379;DHT22;54262;44.642;-0.974;2023-10-09T08:51:51;23.90;99.90
67379;DHT22;54262;44.642;-0.974;2023-10-09T08:54:18;23.70;99.90
67379;DHT22;54262;44.642;-0.974;2023-10-09T08:56:47;23.60;99.90
67379;DHT22;54262;44.642;-0.974;2023-10-09T08:59:16;23.60;99.90
67379;DHT22;54262;44.642;-0.974;2023-10-09T09:01:47;23.50;99.90
67379;DHT22;54262;44.642;-0.974;2023-10-09T09:04:36;23.40;99.90
67379;DHT22;54262;44.642;-0.974;2023-10-09T09:07:04;23.50;99.90
67379;DHT22;54262;44.642;-0.974;2023-10-09T09:09:30;23.50;99.90
67379;DHT22;54262;44.642;-0.974;2023-10-09T09:11:58;23.60;99.90
67379;DHT22;54262;44.642;-0.974;2023-10-09T09:14:36;23.60;99.90
67379;DHT22;54262;44.642;-0.974;2023-10-09T09:17:03;23.70;99.90
67379;DHT22;54262;44.642;-0.974;2023-10-09T09:19:32;23.70;99.90
67379;DHT22;54262;44.642;-0.974;2023-10-09T09:22:01;23.80;99.90
67379;DHT22;54262;44.642;-0.974;2023-10-09T09:24:37;23.80;99.90
67379;DHT22;54262;44.642;-0.974;2023-10-09T09:27:03;23.80;99.90
67379;DHT22;54262;44.642;-0.974;2023-10-09T09:29:40;23.80;99.90
67379;DHT22;54262;44.642;-0.974;2023-10-09T09:32:11;23.90;99.90
67379;DHT22;54262;44.642;-0.974;2023-10-09T09:34:53;24.00;99.90
67379;DHT22;54262;44.642;-0.974;2023-10-09T09:37:32;24.00;99.90
67379;DHT22;54262;44.642;-0.974;2023-10-09T09:40:16;24.10;99.90
67379;DHT22;54262;44.642;-0.974;2023-10-09T09:42:57;24.20;99.90
67379;DHT22;54262;44.642;-0.974;2023-10-09T09:45:38;24.20;99.90
67379;DHT22;54262;44.642;-0.974;2023-10-09T09:48:05;24.30;99.90
67379;DHT22;54262;44.642;-0.974;2023-10-09T09:50:37;24.30;99.90
67379;DHT22;54262;44.642;-0.974;2023-10-09T09:53:12;24.30;99.90
67379;DHT22;54262;44.642;-0.974;2023-10-09T09:55:49;24.30;99.90
67379;DHT22;54262;44.642;-0.974;2023-10-09T09:58:21;24.30;99.90
67379;DHT22;54262;44.642;-0.974;2023-10-09T10:01:01;24.40;99.90
67379;DHT22;54262;44.642;-0.974;2023-10-09T10:03:31;24.40;99.90
67379;DHT22;54262;44.642;-0.974;2023-10-09T10:06:00;24.50;99.90
67379;DHT22;54262;44.642;-0.974;2023-10-09T10:08:30;24.50;99.90
67379;DHT22;54262;44.642;-0.974;2023-10-09T10:10:58;24.40;99.90
67379;DHT22;54262;44.642;-0.974;2023-10-09T10:16:15;24.40;99.90
67379;DHT22;54262;44.642;-0.974;2023-10-09T10:21:26;24.40;99.90
67379;DHT22;54262;44.642;-0.974;2023-10-09T10:27:15;24.00;99.90
67379;DHT22;54262;44.642;-0.974;2023-10-09T10:32:55;23.60;99.90
67379;DHT22;54262;44.642;-0.974;2023-10-09T10:35:35;23.50;99.90
67379;DHT22;54262;44.642;-0.974;2023-10-09T10:38:27;23.40;99.90
67379;DHT22;54262;44.642;-0.974;2023-10-09T10:41:17;23.40;99.90
67379;DHT22;54262;44.642;-0.974;2023-10-09T10:43:45;23.40;99.90
67379;DHT22;54262;44.642;-0.974;2023-10-09T10:46:21;23.30;99.90
67379;DHT22;54262;44.642;-0.974;2023-10-09T10:48:53;23.30;99.90
67379;DHT22;54262;44.642;-0.974;2023-10-09T10:51:26;23.30;99.90
67379;DHT22;54262;44.642;-0.974;2023-10-09T10:54:01;23.30;99.90
67379;DHT22;54262;44.642;-0.974;2023-10-09T10:56:47;23.30;99.90
67379;DHT22;54262;44.642;-0.974;2023-10-09T10:59:14;23.30;99.90
67379;DHT22;54262;44.642;-0.974;2023-10-09T11:01:51;23.30;99.90
67379;DHT22;54262;44.642;-0.974;2023-10-09T11:04:29;23.30;99.90
67379;DHT22;54262;44.642;-0.974;2023-10-09T11:06:55;23.40;99.90
67379;DHT22;54262;44.642;-0.974;2023-10-09T11:09:51;23.30;99.90
67379;DHT22;54262;44.642;-0.974;2023-10-09T11:12:45;23.40;99.90
67379;DHT22;54262;44.642;-0.974;2023-10-09T11:15:37;23.40;99.90
67379;DHT22;54262;44.642;-0.974;2023-10-09T11:18:10;23.40;99.90
67379;DHT22;54262;44.642;-0.974;2023-10-09T11:20:48;23.50;99.90
67379;DHT22;54262;44.642;-0.974;2023-10-09T11:23:32;23.50;99.90
67379;DHT22;54262;44.642;-0.974;2023-10-09T11:26:19;23.50;99.90
67379;DHT22;54262;44.642;-0.974;2023-10-09T11:29:15;23.60;99.90
67379;DHT22;54262;44.642;-0.974;2023-10-09T11:32:20;23.60;99.90
67379;DHT22;54262;44.642;-0.974;2023-10-09T11:35:09;23.60;99.90
67379;DHT22;54262;44.642;-0.974;2023-10-09T11:37:36;23.70;99.90
67379;DHT22;54262;44.642;-0.974;2023-10-09T11:40:27;23.70;99.90
67379;DHT22;54262;44.642;-0.974;2023-10-09T11:43:00;23.70;99.90
67379;DHT22;54262;44.642;-0.974;2023-10-09T11:45:27;23.80;99.90
67379;DHT22;54262;44.642;-0.974;2023-10-09T11:48:16;23.80;99.90
67379;DHT22;54262;44.642;-0.974;2023-10-09T11:51:02;23.80;99.90
67379;DHT22;54262;44.642;-0.974;2023-10-09T11:53:28;23.90;99.90
67379;DHT22;54262;44.642;-0.974;2023-10-09T11:55:54;23.90;99.90
67379;DHT22;54262;44.642;-0.974;2023-10-09T11:58:20;23.90;99.90
67379;DHT22;54262;44.642;-0.974;2023-10-09T12:00:53;24.00;99.90
67379;DHT22;54262;44.642;-0.974;2023-10-09T12:03:29;24.00;99.90
67379;DHT22;54262;44.642;-0.974;2023-10-09T12:06:00;24.10;99.90
67379;DHT22;54262;44.642;-0.974;2023-10-09T12:08:39;24.10;99.90
67379;DHT22;54262;44.642;-0.974;2023-10-09T12:11:06;24.20;99.90
67379;DHT22;54262;44.642;-0.974;2023-10-09T12:13:38;24.20;99.90
67379;DHT22;54262;44.642;-0.974;2023-10-09T12:16:04;24.20;99.90
67379;DHT22;54262;44.642;-0.974;2023-10-09T12:18:36;24.30;99.90
67379;DHT22;54262;44.642;-0.974;2023-10-09T12:21:05;24.40;99.90
67379;DHT22;54262;44.642;-0.974;2023-10-09T12:23:32;24.40;99.90
67379;DHT22;54262;44.642;-0.974;2023-10-09T12:26:02;24.50;99.90
67379;DHT22;54262;44.642;-0.974;2023-10-09T12:28:28;24.60;99.90
67379;DHT22;54262;44.642;-0.974;2023-10-09T12:30:58;24.60;99.90
67379;DHT22;54262;44.642;-0.974;2023-10-09T12:33:28;24.70;99.90
67379;DHT22;54262;44.642;-0.974;2023-10-09T12:35:57;24.70;99.90
67379;DHT22;54262;44.642;-0.974;2023-10-09T12:38:26;24.70;99.90
67379;DHT22;54262;44.642;-0.974;2023-10-09T12:41:07;24.70;99.90
67379;DHT22;54262;44.642;-0.974;2023-10-09T12:43:53;24.80;99.90
67379;DHT22;54262;44.642;-0.974;2023-10-09T12:46:19;24.80;99.90
67379;DHT22;54262;44.642;-0.974;2023-10-09T12:48:54;24.90;99.90
67379;DHT22;54262;44.642;-0.974;2023-10-09T12:51:21;24.90;99.90
67379;DHT22;54262;44.642;-0.974;2023-10-09T12:53:51;24.90;99.90
67379;DHT22;54262;44.642;-0.974;2023-10-09T12:56:26;25.00;99.90
67379;DHT22;54262;44.642;-0.974;2023-10-09T12:59:04;25.00;99.90
67379;DHT22;54262;44.642;-0.974;2023-10-09T13:01:31;25.10;99.90
67379;DHT22;54262;44.642;-0.974;2023-10-09T13:04:09;25.10;99.90
67379;DHT22;54262;44.642;-0.974;2023-10-09T13:06:40;25.10;99.90
67379;DHT22;54262;44.642;-0.974;2023-10-09T13:09:13;25.20;99.90
67379;DHT22;54262;44.642;-0.974;2023-10-09T13:11:43;25.20;99.90
67379;DHT22;54262;44.642;-0.974;2023-10-09T13:14:13;25.20;99.90
67379;DHT22;54262;44.642;-0.974;2023-10-09T13:16:51;25.20;99.90
67379;DHT22;54262;44.642;-0.974;2023-10-09T13:19:17;25.30;99.90
67379;DHT22;54262;44.642;-0.974;2023-10-09T13:21:44;25.30;99.90
67379;DHT22;54262;44.642;-0.974;2023-10-09T13:24:10;25.30;99.90
67379;DHT22;54262;44.642;-0.974;2023-10-09T13:26:42;25.30;99.90
67379;DHT22;54262;44.642;-0.974;2023-10-09T13:29:10;25.40;99.90
67379;DHT22;54262;44.642;-0.974;2023-10-09T13:31:37;25.40;99.90
67379;DHT22;54262;44.642;-0.974;2023-10-09T13:34:09;25.40;99.90
67379;DHT22;54262;44.642;-0.974;2023-10-09T13:36:41;25.40;99.90
67379;DHT22;54262;44.642;-0.974;2023-10-09T13:39:15;25.40;99.90
67379;DHT22;54262;44.642;-0.974;2023-10-09T13:41:59;25.40;99.90
67379;DHT22;54262;44.642;-0.974;2023-10-09T13:44:34;25.40;99.90
67379;DHT22;54262;44.642;-0.974;2023-10-09T13:47:01;25.50;99.90
67379;DHT22;54262;44.642;-0.974;2023-10-09T13:49:33;25.50;99.90
67379;DHT22;54262;44.642;-0.974;2023-10-09T13:52:01;25.50;99.90
67379;DHT22;54262;44.642;-0.974;2023-10-09T13:54:27;25.50;99.90
67379;DHT22;54262;44.642;-0.974;2023-10-09T13:57:00;25.50;99.90
67379;DHT22;54262;44.642;-0.974;2023-10-09T13:59:25;25.60;99.90
67379;DHT22;54262;44.642;-0.974;2023-10-09T14:01:52;25.60;99.90
67379;DHT22;54262;44.642;-0.974;2023-10-09T14:04:20;25.60;99.90
67379;DHT22;54262;44.642;-0.974;2023-10-09T14:06:46;25.70;99.90
67379;DHT22;54262;44.642;-0.974;2023-10-09T14:09:25;25.70;99.90
67379;DHT22;54262;44.642;-0.974;2023-10-09T14:12:01;25.70;99.90
67379;DHT22;54262;44.642;-0.974;2023-10-09T14:14:42;25.70;99.90
67379;DHT22;54262;44.642;-0.974;2023-10-09T14:17:21;25.70;99.90
67379;DHT22;54262;44.642;-0.974;2023-10-09T14:19:57;25.70;99.90
67379;DHT22;54262;44.642;-0.974;2023-10-09T14:22:43;25.80;99.80
67379;DHT22;54262;44.642;-0.974;2023-10-09T14:25:11;25.80;98.90
67379;DHT22;54262;44.642;-0.974;2023-10-09T14:27:49;25.80;98.30
67379;DHT22;54262;44.642;-0.974;2023-10-09T14:30:18;25.80;98.10
67379;DHT22;54262;44.642;-0.974;2023-10-09T14:32:58;25.80;97.60
67379;DHT22;54262;44.642;-0.974;2023-10-09T14:35:24;25.80;96.40
67379;DHT22;54262;44.642;-0.974;2023-10-09T14:37:55;25.80;95.90
67379;DHT22;54262;44.642;-0.974;2023-10-09T14:40:22;25.80;94.80
67379;DHT22;54262;44.642;-0.974;2023-10-09T14:42:56;25.80;94.30
67379;DHT22;54262;44.642;-0.974;2023-10-09T14:45:24;25.80;93.80
67379;DHT22;54262;44.642;-0.974;2023-10-09T14:47:52;25.90;93.50
67379;DHT22;54262;44.642;-0.974;2023-10-09T14:50:21;25.90;93.20
67379;DHT22;54262;44.642;-0.974;2023-10-09T14:52:49;25.90;93.30
67379;DHT22;54262;44.642;-0.974;2023-10-09T14:55:16;25.90;93.10
67379;DHT22;54262;44.642;-0.974;2023-10-09T14:57:47;25.90;92.40
67379;DHT22;54262;44.642;-0.974;2023-10-09T15:00:15;25.90;91.90
67379;DHT22;54262;44.642;-0.974;2023-10-09T15:02:41;25.90;91.90
67379;DHT22;54262;44.642;-0.974;2023-10-09T15:05:07;25.90;91.40
67379;DHT22;54262;44.642;-0.974;2023-10-09T15:07:37;26.00;91.20
67379;DHT22;54262;44.642;-0.974;2023-10-09T15:10:07;25.90;91.10
67379;DHT22;54262;44.642;-0.974;2023-10-09T15:12:35;26.00;91.30
67379;DHT22;54262;44.642;-0.974;2023-10-09T15:15:06;26.00;91.10
67379;DHT22;54262;44.642;-0.974;2023-10-09T15:17:42;26.00;91.40
67379;DHT22;54262;44.642;-0.974;2023-10-09T15:20:14;26.00;91.60
67379;DHT22;54262;44.642;-0.974;2023-10-09T15:22:44;26.00;91.60
67379;DHT22;54262;44.642;-0.974;2023-10-09T15:25:10;26.00;91.80
67379;DHT22;54262;44.642;-0.974;2023-10-09T15:27:42;26.10;92.30
67379;DHT22;54262;44.642;-0.974;2023-10-09T15:30:08;26.00;92.30
67379;DHT22;54262;44.642;-0.974;2023-10-09T15:32:43;26.00;92.20
67379;DHT22;54262;44.642;-0.974;2023-10-09T15:35:09;26.10;92.70
67379;DHT22;54262;44.642;-0.974;2023-10-09T15:37:39;26.10;93.40
67379;DHT22;54262;44.642;-0.974;2023-10-09T15:40:07;26.00;93.70
67379;DHT22;54262;44.642;-0.974;2023-10-09T15:42:43;26.00;94.20
67379;DHT22;54262;44.642;-0.974;2023-10-09T15:45:18;26.00;94.10
67379;DHT22;54262;44.642;-0.974;2023-10-09T15:47:50;26.10;94.20
67379;DHT22;54262;44.642;-0.974;2023-10-09T15:50:21;26.10;94.70
67379;DHT22;54262;44.642;-0.974;2023-10-09T15:52:51;26.10;95.60
67379;DHT22;54262;44.642;-0.974;2023-10-09T15:55:19;26.10;95.90
67379;DHT22;54262;44.642;-0.974;2023-10-09T15:57:46;26.10;96.20
67379;DHT22;54262;44.642;-0.974;2023-10-09T16:00:14;26.10;96.30
67379;DHT22;54262;44.642;-0.974;2023-10-09T16:02:49;26.10;96.40
67379;DHT22;54262;44.642;-0.974;2023-10-09T16:05:18;26.00;96.50
67379;DHT22;54262;44.642;-0.974;2023-10-09T16:07:45;26.10;96.50
67379;DHT22;54262;44.642;-0.974;2023-10-09T16:10:11;26.10;96.60
67379;DHT22;54262;44.642;-0.974;2023-10-09T16:12:37;26.10;96.50
67379;DHT22;54262;44.642;-0.974;2023-10-09T16:15:04;26.10;96.30